createdAt,value
2019-01-23T00:01:12.224Z,-4.77
2019-01-23T00:02:47.881Z,-4.75
2019-01-23T00:04:24.974Z,-4.77
2019-01-23T00:06:00.560Z,-4.72
2019-01-23T00:07:38.085Z,-4.74
2019-01-23T00:09:19.086Z,-4.67
2019-01-23T00:10:57.308Z,-4.70
2019-01-23T00:12:32.696Z,-4.68
2019-01-23T00:14:10.682Z,-4.73
2019-01-23T00:15:53.654Z,-4.71
2019-01-23T00:17:30.299Z,-4.74
2019-01-23T00:19:05.671Z,-4.67
2019-01-23T00:20:46.300Z,-4.62
2019-01-23T00:22:22.158Z,-4.66
2019-01-23T00:23:57.944Z,-4.67
2019-01-23T00:25:34.248Z,-4.68
2019-01-23T00:27:10.267Z,-4.71
2019-01-23T00:28:46.317Z,-4.72
2019-01-23T00:30:22.635Z,-4.72
2019-01-23T00:31:58.805Z,-4.76
2019-01-23T00:33:34.011Z,-4.72
2019-01-23T00:35:10.315Z,-4.66
2019-01-23T00:36:46.391Z,-4.65
2019-01-23T00:38:27.094Z,-4.65
2019-01-23T00:40:06.654Z,-4.72
2019-01-23T00:41:42.093Z,-4.67
2019-01-23T00:43:18.123Z,-4.64
2019-01-23T00:44:53.536Z,-4.64
2019-01-23T00:46:29.020Z,-4.67
2019-01-23T00:48:04.973Z,-4.63
2019-01-23T00:49:42.941Z,-4.65
2019-01-23T00:51:18.334Z,-4.65
2019-01-23T00:52:54.171Z,-4.69
2019-01-23T00:54:32.414Z,-4.79
2019-01-23T00:56:08.224Z,-4.76
2019-01-23T00:57:47.577Z,-4.73
2019-01-23T00:59:22.884Z,-4.72
2019-01-23T01:00:59.035Z,-4.65
2019-01-23T01:02:34.500Z,-4.66
2019-01-23T01:04:09.805Z,-4.65
2019-01-23T01:05:46.848Z,-4.66
2019-01-23T01:07:24.129Z,-4.65
2019-01-23T01:09:00.038Z,-4.71
2019-01-23T01:10:41.225Z,-4.65
2019-01-23T01:12:17.091Z,-4.66
2019-01-23T01:13:54.640Z,-4.72
2019-01-23T01:15:33.447Z,-4.72
2019-01-23T01:17:09.399Z,-4.78
2019-01-23T01:18:45.750Z,-4.82
2019-01-23T01:20:22.817Z,-4.77
2019-01-23T01:21:58.859Z,-4.79
2019-01-23T01:23:36.398Z,-4.78
2019-01-23T01:25:14.537Z,-4.79
2019-01-23T01:26:54.005Z,-4.78
2019-01-23T01:28:29.962Z,-4.78
2019-01-23T01:30:24.510Z,-4.79
2019-01-23T01:32:00.536Z,-4.78
2019-01-23T01:33:37.020Z,-4.79
2019-01-23T01:35:13.999Z,-4.82
2019-01-23T01:36:50.037Z,-4.87
2019-01-23T01:38:35.818Z,-4.81
2019-01-23T01:40:12.659Z,-4.84
2019-01-23T01:41:49.404Z,-4.84
2019-01-23T01:43:25.162Z,-4.86
2019-01-23T01:45:09.145Z,-4.91
2019-01-23T01:46:46.335Z,-4.87
2019-01-23T01:48:22.229Z,-4.92
2019-01-23T01:49:58.751Z,-4.87
2019-01-23T01:51:34.025Z,-4.93
2019-01-23T01:53:09.431Z,-4.86
2019-01-23T01:54:44.753Z,-4.89
2019-01-23T01:56:20.019Z,-4.84
2019-01-23T01:57:58.479Z,-4.88
2019-01-23T01:59:33.956Z,-4.85
2019-01-23T02:01:09.305Z,-4.90
2019-01-23T02:02:44.588Z,-4.88
2019-01-23T02:04:20.711Z,-4.88
2019-01-23T02:05:56.286Z,-4.90
2019-01-23T02:07:31.890Z,-4.90
2019-01-23T02:09:09.951Z,-4.87
2019-01-23T02:10:46.012Z,-4.86
2019-01-23T02:12:22.725Z,-4.91
2019-01-23T02:13:58.367Z,-4.89
2019-01-23T02:15:33.858Z,-4.90
2019-01-23T02:17:09.286Z,-4.91
2019-01-23T02:18:44.825Z,-4.97
2019-01-23T02:20:22.461Z,-4.90
2019-01-23T02:22:00.684Z,-4.92
2019-01-23T02:23:36.080Z,-4.88
2019-01-23T02:25:11.463Z,-4.91
2019-01-23T02:26:47.285Z,-4.93
2019-01-23T02:28:24.387Z,-4.93
2019-01-23T02:30:04.447Z,-4.95
2019-01-23T02:31:40.307Z,-4.97
2019-01-23T02:33:15.679Z,-4.99
2019-01-23T02:34:53.623Z,-4.96
2019-01-23T02:36:30.434Z,-4.94
2019-01-23T02:38:07.967Z,-5.01
2019-01-23T02:39:46.509Z,-4.97
2019-01-23T02:41:23.083Z,-4.98
2019-01-23T02:42:58.673Z,-4.98
2019-01-23T02:44:34.816Z,-4.97
2019-01-23T02:46:10.815Z,-4.97
2019-01-23T02:47:46.469Z,-4.96
2019-01-23T02:49:22.144Z,-4.94
2019-01-23T02:50:58.415Z,-4.93
2019-01-23T02:52:33.830Z,-4.95
2019-01-23T02:54:09.733Z,-4.93
2019-01-23T02:55:45.690Z,-4.97
2019-01-23T02:57:21.140Z,-4.97
2019-01-23T02:58:56.862Z,-5.00
2019-01-23T03:00:32.496Z,-4.97
2019-01-23T03:02:08.425Z,-4.96
2019-01-23T03:03:44.801Z,-4.97
2019-01-23T03:05:21.351Z,-4.99
2019-01-23T03:07:00.452Z,-5.02
2019-01-23T03:08:36.150Z,-5.01
2019-01-23T03:10:13.574Z,-4.98
2019-01-23T03:11:50.502Z,-4.98
2019-01-23T03:13:26.283Z,-4.98
2019-01-23T03:15:03.457Z,-5.03
2019-01-23T03:16:40.553Z,-5.00
2019-01-23T03:18:21.076Z,-5.01
2019-01-23T03:19:59.731Z,-5.00
2019-01-23T03:21:41.111Z,-5.03
2019-01-23T03:23:19.911Z,-5.06
2019-01-23T03:24:57.442Z,-5.07
2019-01-23T03:26:33.920Z,-5.07
2019-01-23T03:28:14.897Z,-5.10
2019-01-23T03:29:53.690Z,-5.08
2019-01-23T03:31:30.499Z,-5.11
2019-01-23T03:33:08.207Z,-5.12
2019-01-23T03:34:48.716Z,-5.10
2019-01-23T03:36:21.535Z,-5.13
2019-01-23T03:37:57.488Z,-5.14
2019-01-23T03:39:33.436Z,-5.16
2019-01-23T03:41:08.896Z,-5.13
2019-01-23T03:42:44.486Z,-5.12
2019-01-23T03:44:19.928Z,-5.15
2019-01-23T03:45:55.829Z,-5.14
2019-01-23T03:47:31.206Z,-5.13
2019-01-23T03:49:07.083Z,-5.18
2019-01-23T03:50:42.632Z,-5.17
2019-01-23T03:52:18.017Z,-5.13
2019-01-23T03:53:53.391Z,-5.12
2019-01-23T03:55:31.506Z,-5.13
2019-01-23T03:57:07.739Z,-5.13
2019-01-23T03:58:43.927Z,-5.13
2019-01-23T04:00:21.422Z,-5.13
2019-01-23T04:01:57.388Z,-5.10
2019-01-23T04:03:33.264Z,-5.15
2019-01-23T04:05:09.722Z,-5.15
2019-01-23T04:06:49.786Z,-5.18
2019-01-23T04:08:25.284Z,-5.14
2019-01-23T04:10:00.907Z,-5.17
2019-01-23T04:11:37.843Z,-5.14
2019-01-23T04:13:13.490Z,-5.15
2019-01-23T04:14:49.222Z,-5.17
2019-01-23T04:16:26.084Z,-5.19
2019-01-23T04:18:04.365Z,-5.16
2019-01-23T04:19:40.168Z,-5.15
2019-01-23T04:21:15.516Z,-5.14
2019-01-23T04:22:51.091Z,-5.12
2019-01-23T04:24:26.770Z,-5.10
2019-01-23T04:26:02.476Z,-5.11
2019-01-23T04:27:37.746Z,-5.13
2019-01-23T04:29:13.128Z,-5.10
2019-01-23T04:30:48.873Z,-5.12
2019-01-23T04:32:27.180Z,-5.10
2019-01-23T04:34:02.887Z,-5.09
2019-01-23T04:35:38.210Z,-5.09
2019-01-23T04:37:13.505Z,-5.11
2019-01-23T04:38:49.589Z,-5.12
2019-01-23T04:40:26.658Z,-5.13
2019-01-23T04:42:02.506Z,-5.12
2019-01-23T04:43:38.183Z,-5.10
2019-01-23T04:45:18.001Z,-5.08
2019-01-23T04:46:53.777Z,-5.09
2019-01-23T04:48:29.312Z,-5.12
2019-01-23T04:50:05.376Z,-5.16
2019-01-23T04:51:54.856Z,-5.13
2019-01-23T04:53:37.598Z,-5.16
2019-01-23T04:55:13.062Z,-5.19
2019-01-23T04:56:48.333Z,-5.24
2019-01-23T04:58:23.615Z,-5.22
2019-01-23T04:59:59.279Z,-5.25
2019-01-23T05:01:35.105Z,-5.27
2019-01-23T05:03:10.440Z,-5.23
2019-01-23T05:04:45.759Z,-5.26
2019-01-23T05:06:21.814Z,-5.26
2019-01-23T05:07:57.115Z,-5.24
2019-01-23T05:09:32.492Z,-5.23
2019-01-23T05:11:07.856Z,-5.24
2019-01-23T05:12:43.118Z,-5.26
2019-01-23T05:14:18.863Z,-5.24
2019-01-23T05:15:54.406Z,-5.27
2019-01-23T05:17:29.787Z,-5.29
2019-01-23T05:19:05.116Z,-5.29
2019-01-23T05:20:43.211Z,-5.27
2019-01-23T05:22:18.573Z,-5.27
2019-01-23T05:23:54.422Z,-5.32
2019-01-23T05:25:29.743Z,-5.33
2019-01-23T05:27:05.415Z,-5.29
2019-01-23T05:28:43.561Z,-5.30
2019-01-23T05:30:22.088Z,-5.31
2019-01-23T05:32:06.717Z,-5.31
2019-01-23T05:33:43.175Z,-5.33
2019-01-23T05:35:19.381Z,-5.32
2019-01-23T05:36:57.772Z,-5.35
2019-01-23T05:38:33.154Z,-5.34
2019-01-23T05:40:09.056Z,-5.34
2019-01-23T05:41:44.424Z,-5.37
2019-01-23T05:43:19.978Z,-5.32
2019-01-23T05:44:55.497Z,-5.36
2019-01-23T05:46:33.157Z,-5.39
2019-01-23T05:48:08.581Z,-5.39
2019-01-23T05:49:43.969Z,-5.40
2019-01-23T05:51:20.201Z,-5.42
2019-01-23T05:52:55.581Z,-5.37
2019-01-23T05:54:30.896Z,-5.39
2019-01-23T05:56:06.380Z,-5.41
2019-01-23T05:57:41.844Z,-5.43
2019-01-23T05:59:22.836Z,-5.44
2019-01-23T06:00:58.306Z,-5.42
2019-01-23T06:02:33.828Z,-5.36
2019-01-23T06:04:09.221Z,-5.41
2019-01-23T06:05:45.197Z,-5.39
2019-01-23T06:07:21.120Z,-5.39
2019-01-23T06:08:57.820Z,-5.39
2019-01-23T06:10:33.176Z,-5.41
2019-01-23T06:12:08.721Z,-5.43
2019-01-23T06:13:44.058Z,-5.41
2019-01-23T06:15:22.281Z,-5.41
2019-01-23T06:16:57.637Z,-5.42
2019-01-23T06:18:37.732Z,-5.41
2019-01-23T06:20:15.911Z,-5.43
2019-01-23T06:21:58.510Z,-5.42
2019-01-23T06:23:36.217Z,-5.42
2019-01-23T06:25:13.222Z,-5.43
2019-01-23T06:26:48.736Z,-5.42
2019-01-23T06:28:33.920Z,-5.40
2019-01-23T06:30:14.328Z,-5.43
2019-01-23T06:31:50.521Z,-5.46
2019-01-23T06:33:27.256Z,-5.46
2019-01-23T06:35:03.166Z,-5.45
2019-01-23T06:36:38.634Z,-5.46
2019-01-23T06:38:15.920Z,-5.46
2019-01-23T06:39:53.394Z,-5.46
2019-01-23T06:41:44.000Z,-5.48
2019-01-23T06:43:19.484Z,-5.50
2019-01-23T06:44:55.945Z,-5.54
2019-01-23T06:46:31.767Z,-5.54
2019-01-23T06:48:12.167Z,-5.52
2019-01-23T06:49:47.622Z,-5.56
2019-01-23T06:51:23.068Z,-5.56
2019-01-23T06:52:59.037Z,-5.59
2019-01-23T06:54:36.492Z,-5.56
2019-01-23T06:56:12.325Z,-5.57
2019-01-23T06:57:49.381Z,-5.58
2019-01-23T06:59:27.626Z,-5.58
2019-01-23T07:01:06.636Z,-5.60
2019-01-23T07:02:44.470Z,-5.62
2019-01-23T07:04:23.209Z,-5.62
2019-01-23T07:05:58.931Z,-5.64
2019-01-23T07:07:37.652Z,-5.65
2019-01-23T07:09:13.716Z,-5.61
2019-01-23T07:10:49.636Z,-5.59
2019-01-23T07:12:27.104Z,-5.60
2019-01-23T07:14:02.620Z,-5.61
2019-01-23T07:15:39.158Z,-5.63
2019-01-23T07:17:20.610Z,-5.62
2019-01-23T07:18:55.911Z,-5.65
2019-01-23T07:20:36.770Z,-5.64
2019-01-23T07:22:13.423Z,-5.67
2019-01-23T07:23:50.849Z,-5.69
2019-01-23T07:25:29.986Z,-5.68
2019-01-23T07:27:13.736Z,-5.65
2019-01-23T07:28:49.513Z,-5.66
2019-01-23T07:30:30.434Z,-5.64
2019-01-23T07:32:07.439Z,-5.65
2019-01-23T07:33:46.408Z,-5.65
2019-01-23T07:35:25.729Z,-5.61
2019-01-23T07:37:08.312Z,-5.64
2019-01-23T07:38:46.973Z,-5.65
2019-01-23T07:40:24.345Z,-5.63
2019-01-23T07:42:01.100Z,-5.63
2019-01-23T07:43:37.532Z,-5.59
2019-01-23T07:45:15.376Z,-5.61
2019-01-23T07:46:51.112Z,-5.58
2019-01-23T07:48:26.561Z,-5.54
2019-01-23T07:50:06.964Z,-5.48
2019-01-23T07:51:43.050Z,-5.48
2019-01-23T07:53:22.464Z,-5.49
2019-01-23T07:54:59.767Z,-5.46
2019-01-23T07:56:41.103Z,-5.42
2019-01-23T07:58:19.328Z,-5.42
2019-01-23T07:59:59.865Z,-5.37
2019-01-23T08:01:36.417Z,-5.39
2019-01-23T08:03:20.363Z,-5.37
2019-01-23T08:04:57.378Z,-5.31
2019-01-23T08:06:41.870Z,-5.27
2019-01-23T08:08:17.216Z,-5.25
2019-01-23T08:10:07.872Z,-5.18
2019-01-23T08:11:43.240Z,-5.15
2019-01-23T08:13:18.701Z,-5.17
2019-01-23T08:14:54.414Z,-5.14
2019-01-23T08:16:30.153Z,-5.06
2019-01-23T08:18:10.737Z,-5.06
2019-01-23T08:19:47.296Z,-5.03
2019-01-23T08:21:24.378Z,-5.05
2019-01-23T08:22:59.838Z,-4.98
2019-01-23T08:24:35.899Z,-4.96
2019-01-23T08:26:14.398Z,-4.91
2019-01-23T08:27:56.607Z,-4.92
2019-01-23T08:29:33.965Z,-4.90
2019-01-23T08:31:13.415Z,-4.84
2019-01-23T08:32:52.673Z,-4.77
2019-01-23T08:34:28.678Z,-4.74
2019-01-23T08:36:05.496Z,-4.60
2019-01-23T08:37:41.290Z,-4.58
2019-01-23T08:39:17.213Z,-4.62
2019-01-23T08:40:53.837Z,-4.57
2019-01-23T08:42:29.625Z,-4.57
2019-01-23T08:44:09.194Z,-4.60
2019-01-23T08:45:44.576Z,-4.55
2019-01-23T08:47:19.917Z,-4.51
2019-01-23T08:48:59.495Z,-4.41
2019-01-23T08:50:39.739Z,-4.42
2019-01-23T08:52:18.039Z,-4.36
2019-01-23T08:53:53.810Z,-4.35
2019-01-23T08:55:31.716Z,-4.32
2019-01-23T08:57:11.154Z,-4.31
2019-01-23T08:58:50.736Z,-4.24
2019-01-23T09:00:30.326Z,-4.27
2019-01-23T09:02:09.195Z,-4.32
2019-01-23T09:03:48.897Z,-4.33
2019-01-23T09:05:40.261Z,-4.38
2019-01-23T09:07:16.042Z,-4.31
2019-01-23T09:08:56.892Z,-4.21
2019-01-23T09:10:32.056Z,-4.13
2019-01-23T09:12:10.598Z,-4.19
2019-01-23T09:13:49.906Z,-4.00
2019-01-23T09:15:26.505Z,-4.00
2019-01-23T09:17:09.734Z,-3.95
2019-01-23T09:18:50.503Z,-3.99
2019-01-23T09:20:29.482Z,-4.11
2019-01-23T09:22:06.285Z,-4.20
2019-01-23T09:23:56.788Z,-4.25
2019-01-23T09:25:37.638Z,-4.37
2019-01-23T09:27:16.216Z,-4.30
2019-01-23T09:28:58.826Z,-4.30
2019-01-23T09:30:52.611Z,-4.21
2019-01-23T09:33:08.060Z,-4.19
2019-01-23T09:35:39.584Z,-4.17
2019-01-23T09:37:53.490Z,-4.06
2019-01-23T09:39:59.479Z,-4.02
2019-01-23T09:41:49.613Z,-3.79
2019-01-23T09:44:18.822Z,-3.68
2019-01-23T09:46:25.617Z,-3.71
2019-01-23T09:48:15.530Z,-3.86
2019-01-23T09:50:45.482Z,-3.81
2019-01-23T09:53:17.122Z,-3.86
2019-01-23T09:54:53.217Z,-3.92
2019-01-23T09:56:31.615Z,-3.71
2019-01-23T09:58:15.337Z,-3.49
2019-01-23T09:59:59.424Z,-3.34
2019-01-23T10:01:34.445Z,-3.20
2019-01-23T10:03:09.770Z,-2.95
2019-01-23T10:04:47.543Z,-2.96
2019-01-23T10:06:27.373Z,-3.02
2019-01-23T10:08:06.344Z,-3.01
2019-01-23T10:09:47.106Z,-3.05
2019-01-23T10:11:28.946Z,-2.87
2019-01-23T10:13:06.282Z,-2.65
2019-01-23T10:14:45.196Z,-2.72
2019-01-23T10:16:26.661Z,-2.78
2019-01-23T10:18:12.464Z,-2.84
2019-01-23T10:19:48.468Z,-2.61
2019-01-23T10:21:25.317Z,-2.45
2019-01-23T10:23:04.389Z,-2.53
2019-01-23T10:24:44.574Z,-2.44
2019-01-23T10:26:24.882Z,-2.38
2019-01-23T10:28:28.888Z,-2.30
2019-01-23T10:29:57.581Z,-2.25
2019-01-23T10:31:58.647Z,-2.16
2019-01-23T10:33:45.289Z,-2.38
2019-01-23T10:35:26.841Z,-2.54
2019-01-23T10:37:02.829Z,-2.32
2019-01-23T10:38:43.466Z,-2.43
2019-01-23T10:40:22.252Z,-2.49
2019-01-23T10:42:13.419Z,-2.51
2019-01-23T10:44:00.394Z,-2.42
2019-01-23T10:45:41.050Z,-2.54
2019-01-23T10:47:19.239Z,-2.81
2019-01-23T10:48:56.108Z,-2.94
2019-01-23T10:50:39.378Z,-2.97
2019-01-23T10:52:15.352Z,-2.95
2019-01-23T10:53:52.786Z,-3.01
2019-01-23T10:55:28.703Z,-3.10
2019-01-23T10:57:20.735Z,-2.96
2019-01-23T10:59:00.047Z,-2.69
2019-01-23T11:00:37.836Z,-2.51
2019-01-23T11:02:13.750Z,-2.49
2019-01-23T11:03:51.346Z,-2.33
2019-01-23T11:05:31.334Z,-2.19
2019-01-23T11:07:09.410Z,-1.97
2019-01-23T11:08:48.663Z,-2.07
2019-01-23T11:10:27.808Z,-2.10
2019-01-23T11:12:05.040Z,-1.99
2019-01-23T11:13:41.228Z,-1.87
2019-01-23T11:15:22.368Z,-1.68
2019-01-23T11:17:08.049Z,-1.62
2019-01-23T11:18:52.173Z,-1.70
2019-01-23T11:20:37.540Z,-1.61
2019-01-23T11:22:12.937Z,-1.71
2019-01-23T11:23:52.431Z,-1.70
2019-01-23T11:25:33.568Z,-1.61
2019-01-23T11:27:18.196Z,-1.57
2019-01-23T11:29:02.688Z,-1.83
2019-01-23T11:30:46.439Z,-1.57
2019-01-23T11:32:28.606Z,-1.46
2019-01-23T11:34:15.539Z,-1.56
2019-01-23T11:35:51.398Z,-1.61
2019-01-23T11:37:29.928Z,-1.60
2019-01-23T11:39:14.954Z,-1.57
2019-01-23T11:40:55.796Z,-1.81
2019-01-23T11:42:38.820Z,-1.78
2019-01-23T11:44:19.005Z,-1.69
2019-01-23T11:46:01.934Z,-1.68
2019-01-23T11:47:40.957Z,-1.64
2019-01-23T11:49:18.465Z,-1.48
2019-01-23T11:50:53.916Z,-1.32
2019-01-23T11:52:29.787Z,-1.35
2019-01-23T11:54:05.211Z,-1.24
2019-01-23T11:55:43.738Z,-1.38
2019-01-23T11:57:26.168Z,-1.37
2019-01-23T11:59:05.191Z,-1.38
2019-01-23T12:00:40.765Z,-1.87
2019-01-23T12:02:19.175Z,-2.00
2019-01-23T12:03:58.595Z,-1.96
2019-01-23T12:05:36.325Z,-1.97
2019-01-23T12:07:15.022Z,-2.11
2019-01-23T12:08:52.846Z,-1.89
2019-01-23T12:10:38.761Z,-1.97
2019-01-23T12:12:14.533Z,-1.98
2019-01-23T12:13:56.038Z,-2.05
2019-01-23T12:15:40.663Z,-2.19
2019-01-23T12:17:16.182Z,-2.19
2019-01-23T12:18:54.607Z,-2.25
2019-01-23T12:20:30.561Z,-2.31
2019-01-23T12:22:08.166Z,-2.11
2019-01-23T12:23:50.040Z,-1.98
2019-01-23T12:25:27.302Z,-2.22
2019-01-23T12:27:13.867Z,-2.20
2019-01-23T12:28:51.795Z,-2.17
2019-01-23T12:30:34.224Z,-2.41
2019-01-23T12:32:12.560Z,-2.68
2019-01-23T12:33:55.718Z,-2.59
2019-01-23T12:35:35.119Z,-2.51
2019-01-23T12:37:13.720Z,-2.53
2019-01-23T12:38:50.943Z,-2.40
2019-01-23T12:40:35.531Z,-2.12
2019-01-23T12:42:13.971Z,-1.87
2019-01-23T12:43:55.480Z,-1.82
2019-01-23T12:45:37.903Z,-1.41
2019-01-23T12:47:19.619Z,-1.53
2019-01-23T12:49:05.432Z,-1.23
2019-01-23T12:50:44.748Z,-1.25
2019-01-23T12:52:34.628Z,-1.29
2019-01-23T12:54:18.942Z,-1.20
2019-01-23T12:56:00.438Z,-1.77
2019-01-23T12:57:46.368Z,-1.96
2019-01-23T12:59:22.806Z,-2.09
2019-01-23T13:01:08.343Z,-2.09
2019-01-23T13:02:44.028Z,-1.92
2019-01-23T13:04:20.454Z,-2.07
2019-01-23T13:05:59.894Z,-2.12
2019-01-23T13:07:38.344Z,-1.96
2019-01-23T13:09:15.398Z,-1.98
2019-01-23T13:10:54.786Z,-1.98
2019-01-23T13:12:39.687Z,-1.90
2019-01-23T13:14:20.253Z,-2.14
2019-01-23T13:16:02.652Z,-2.19
2019-01-23T13:17:56.670Z,-2.14
2019-01-23T13:19:46.347Z,-2.37
2019-01-23T13:21:22.772Z,-2.29
2019-01-23T13:23:04.698Z,-2.70
2019-01-23T13:24:42.198Z,-2.70
2019-01-23T13:26:35.155Z,-2.84
2019-01-23T13:28:11.021Z,-2.69
2019-01-23T13:29:50.767Z,-2.66
2019-01-23T13:31:37.527Z,-2.63
2019-01-23T13:33:14.457Z,-2.83
2019-01-23T13:34:52.347Z,-2.72
2019-01-23T13:36:35.872Z,-2.60
2019-01-23T13:38:15.235Z,-2.64
2019-01-23T13:39:54.061Z,-2.96
2019-01-23T13:41:34.216Z,-2.92
2019-01-23T13:43:10.349Z,-2.83
2019-01-23T13:44:46.262Z,-2.93
2019-01-23T13:46:24.970Z,-3.16
2019-01-23T13:48:02.606Z,-3.08
2019-01-23T13:49:42.268Z,-3.05
2019-01-23T13:51:24.167Z,-2.92
2019-01-23T13:53:05.712Z,-3.02
2019-01-23T13:54:43.794Z,-3.12
2019-01-23T13:56:20.445Z,-3.08
2019-01-23T13:58:03.575Z,-3.12
2019-01-23T13:59:39.732Z,-2.97
2019-01-23T14:01:18.243Z,-3.05
2019-01-23T14:02:58.917Z,-3.02
2019-01-23T14:04:46.422Z,-3.01
2019-01-23T14:06:23.213Z,-3.00
2019-01-23T14:08:02.163Z,-3.16
2019-01-23T14:09:42.412Z,-3.21
2019-01-23T14:11:18.629Z,-3.27
2019-01-23T14:12:57.607Z,-3.33
2019-01-23T14:14:33.397Z,-3.31
2019-01-23T14:16:14.809Z,-3.28
2019-01-23T14:17:56.216Z,-3.41
2019-01-23T14:19:36.395Z,-3.37
2019-01-23T14:21:12.104Z,-3.41
2019-01-23T14:22:52.796Z,-3.43
2019-01-23T14:24:29.371Z,-3.57
2019-01-23T14:26:08.086Z,-3.52
2019-01-23T14:27:44.266Z,-3.61
2019-01-23T14:29:19.879Z,-3.53
2019-01-23T14:30:56.324Z,-3.63
2019-01-23T14:32:37.319Z,-3.77
2019-01-23T14:34:16.561Z,-3.79
2019-01-23T14:35:52.844Z,-3.69
2019-01-23T14:37:41.123Z,-3.88
2019-01-23T14:39:22.018Z,-3.75
2019-01-23T14:40:59.768Z,-3.75
2019-01-23T14:42:51.256Z,-3.71
2019-01-23T14:45:09.714Z,-3.71
2019-01-23T14:49:10.622Z,-3.84
2019-01-23T14:50:58.456Z,-3.86
2019-01-23T14:52:44.995Z,-4.01
2019-01-23T14:54:20.985Z,-4.09
2019-01-23T14:55:57.870Z,-4.10
2019-01-23T14:57:38.222Z,-4.05
2019-01-23T14:59:18.155Z,-3.99
2019-01-23T15:00:56.305Z,-3.99
2019-01-23T15:02:34.163Z,-4.07
2019-01-23T15:04:15.032Z,-4.06
2019-01-23T15:05:52.059Z,-4.06
2019-01-23T15:07:27.682Z,-4.11
2019-01-23T15:09:15.637Z,-4.09
2019-01-23T15:11:01.337Z,-4.01
2019-01-23T15:12:46.781Z,-4.00
2019-01-23T15:14:33.617Z,-4.00
2019-01-23T15:16:21.330Z,-4.04
2019-01-23T15:18:04.817Z,-4.03
2019-01-23T15:19:48.019Z,-4.07
2019-01-23T15:21:38.333Z,-4.02
2019-01-23T15:23:21.492Z,-4.07
2019-01-23T15:25:05.268Z,-4.06
2019-01-23T15:26:41.834Z,-4.09
2019-01-23T15:28:18.074Z,-4.15
2019-01-23T15:29:59.302Z,-4.13
2019-01-23T15:31:50.099Z,-4.12
2019-01-23T15:33:18.810Z,-4.30
2019-01-23T15:34:59.298Z,-4.18
2019-01-23T15:36:37.894Z,-4.20
2019-01-23T15:38:23.594Z,-4.28
2019-01-23T15:40:03.677Z,-4.53
2019-01-23T15:41:42.459Z,-4.57
2019-01-23T15:43:22.212Z,-4.46
2019-01-23T15:45:08.505Z,-4.47
2019-01-23T15:46:53.622Z,-4.47
2019-01-23T15:48:29.408Z,-4.41
2019-01-23T15:50:13.413Z,-4.45
2019-01-23T15:51:51.451Z,-4.41
2019-01-23T15:53:30.313Z,-4.39
2019-01-23T15:55:07.196Z,-4.41
2019-01-23T15:56:43.098Z,-4.47
2019-01-23T15:58:32.269Z,-4.47
2019-01-23T16:00:33.603Z,-4.49
2019-01-23T16:02:10.370Z,-4.51
2019-01-23T16:03:52.450Z,-4.62
2019-01-23T16:05:32.387Z,-4.66
2019-01-23T16:07:12.209Z,-4.67
2019-01-23T16:09:02.637Z,-4.64
2019-01-23T16:10:38.387Z,-4.66
2019-01-23T16:12:21.116Z,-4.67
2019-01-23T16:13:58.215Z,-4.66
2019-01-23T16:15:39.528Z,-4.73
2019-01-23T16:17:18.041Z,-4.73
2019-01-23T16:18:54.317Z,-4.76
2019-01-23T16:20:55.792Z,-4.75
2019-01-23T16:22:41.400Z,-4.76
2019-01-23T16:24:16.533Z,-4.79
2019-01-23T16:25:55.874Z,-4.77
2019-01-23T16:27:33.657Z,-4.79
2019-01-23T16:29:13.842Z,-4.81
2019-01-23T16:30:53.114Z,-4.89
2019-01-23T16:32:36.107Z,-4.81
2019-01-23T16:34:18.777Z,-4.81
2019-01-23T16:36:01.508Z,-4.83
2019-01-23T16:37:41.693Z,-4.85
2019-01-23T16:39:19.547Z,-4.92
2019-01-23T16:40:57.850Z,-4.89
2019-01-23T16:42:40.977Z,-4.92
2019-01-23T16:44:25.737Z,-4.89
2019-01-23T16:46:01.914Z,-4.88
2019-01-23T16:47:37.807Z,-4.89
2019-01-23T16:49:20.624Z,-4.89
2019-01-23T16:51:08.453Z,-5.00
2019-01-23T16:52:47.785Z,-4.99
2019-01-23T16:54:28.810Z,-5.00
2019-01-23T16:56:09.036Z,-5.00
2019-01-23T16:57:45.304Z,-5.01
2019-01-23T16:59:29.436Z,-5.09
2019-01-23T17:01:08.570Z,-5.09
2019-01-23T17:02:47.403Z,-5.10
2019-01-23T17:04:32.917Z,-5.10
2019-01-23T17:06:13.320Z,-5.10
2019-01-23T17:08:02.536Z,-5.11
2019-01-23T17:09:42.610Z,-5.10
2019-01-23T17:11:21.188Z,-5.03
2019-01-23T17:12:57.234Z,-5.05
2019-01-23T17:14:38.843Z,-5.16
2019-01-23T17:16:22.583Z,-5.16
2019-01-23T17:18:01.575Z,-5.19
2019-01-23T17:19:39.457Z,-5.16
2019-01-23T17:21:22.500Z,-5.19
2019-01-23T17:23:03.097Z,-5.21
2019-01-23T17:24:42.145Z,-5.23
2019-01-23T17:26:36.449Z,-5.22
2019-01-23T17:28:17.137Z,-5.23
2019-01-23T17:30:07.202Z,-5.27
2019-01-23T17:31:43.433Z,-5.20
2019-01-23T17:33:23.000Z,-5.20
2019-01-23T17:35:03.039Z,-5.26
2019-01-23T17:36:39.164Z,-5.31
2019-01-23T17:38:22.439Z,-5.29
2019-01-23T17:40:07.330Z,-5.29
2019-01-23T17:42:02.357Z,-5.33
2019-01-23T17:43:44.743Z,-5.29
2019-01-23T17:45:33.551Z,-5.33
2019-01-23T17:47:19.225Z,-5.31
2019-01-23T17:49:11.445Z,-5.33
2019-01-23T17:50:57.241Z,-5.32
2019-01-23T17:52:39.450Z,-5.37
2019-01-23T17:54:21.960Z,-5.41
2019-01-23T17:56:02.553Z,-5.41
2019-01-23T17:57:45.287Z,-5.37
2019-01-23T17:59:24.560Z,-5.37
2019-01-23T18:01:02.609Z,-5.33
2019-01-23T18:02:52.619Z,-5.29
2019-01-23T18:04:53.731Z,-5.25
2019-01-23T18:06:36.704Z,-5.28
2019-01-23T18:08:22.308Z,-5.28
2019-01-23T18:09:59.106Z,-5.27
2019-01-23T18:11:40.613Z,-5.25
2019-01-23T18:13:17.663Z,-5.23
2019-01-23T18:15:03.198Z,-5.25
2019-01-23T18:16:47.742Z,-5.27
2019-01-23T18:18:43.117Z,-5.26
2019-01-23T18:20:46.624Z,-5.24
2019-01-23T18:22:41.693Z,-5.26
2019-01-23T18:24:22.707Z,-5.28
2019-01-23T18:27:02.271Z,-5.26
2019-01-23T18:28:38.491Z,-5.23
2019-01-23T18:30:43.197Z,-5.28
2019-01-23T18:32:27.885Z,-5.33
2019-01-23T18:35:01.920Z,-5.37
2019-01-23T18:37:30.321Z,-5.39
2019-01-23T18:42:23.337Z,-5.43
2019-01-23T18:44:30.758Z,-5.48
2019-01-23T18:46:57.950Z,-5.47
2019-01-23T18:49:08.836Z,-5.55
2019-01-23T18:51:24.303Z,-5.63
2019-01-23T18:53:29.292Z,-5.62
2019-01-23T18:54:56.548Z,-5.68
2019-01-23T18:57:01.296Z,-5.68
2019-01-23T19:03:07.196Z,-5.43
2019-01-23T19:07:32.752Z,-5.42
2019-01-23T19:09:28.312Z,-5.46
2019-01-23T19:11:08.223Z,-5.53
2019-01-23T19:12:48.032Z,-5.54
2019-01-23T19:14:30.771Z,-5.60
2019-01-23T19:16:12.908Z,-5.61
2019-01-23T19:17:55.146Z,-5.59
2019-01-23T19:19:46.566Z,-5.57
2019-01-23T19:21:32.447Z,-5.58
2019-01-23T19:23:13.493Z,-5.57
2019-01-23T19:24:59.925Z,-5.66
2019-01-23T19:26:42.907Z,-5.70
2019-01-23T19:28:43.881Z,-5.74
2019-01-23T19:30:40.602Z,-5.79
2019-01-23T19:32:23.694Z,-5.74
2019-01-23T19:34:03.811Z,-5.75
2019-01-23T19:35:51.199Z,-5.78
2019-01-23T19:37:34.611Z,-5.81
2019-01-23T19:39:23.962Z,-5.97
2019-01-23T19:41:12.258Z,-6.11
2019-01-23T19:42:51.582Z,-6.27
2019-01-23T19:44:31.434Z,-6.35
2019-01-23T19:46:16.432Z,-6.43
2019-01-23T19:47:57.507Z,-6.48
2019-01-23T19:49:40.751Z,-6.52
2019-01-23T19:51:33.883Z,-6.53
2019-01-23T19:53:25.395Z,-6.49
2019-01-23T19:55:05.515Z,-6.48
2019-01-23T19:56:46.752Z,-6.61
2019-01-23T19:58:29.118Z,-6.73
2019-01-23T20:00:19.699Z,-6.83
2019-01-23T20:02:03.240Z,-6.93
2019-01-23T20:03:42.563Z,-7.06
2019-01-23T20:05:50.049Z,-7.19
2019-01-23T20:07:35.774Z,-7.20
2019-01-23T20:09:24.016Z,-7.32
2019-01-23T20:11:05.673Z,-7.40
2019-01-23T20:12:55.715Z,-7.42
2019-01-23T20:14:36.174Z,-7.37
2019-01-23T20:16:23.958Z,-7.38
2019-01-23T20:18:07.982Z,-7.29
2019-01-23T20:19:58.827Z,-7.35
2019-01-23T20:21:41.135Z,-7.40
2019-01-23T20:23:48.072Z,-7.53
2019-01-23T20:25:26.144Z,-7.49
2019-01-23T20:27:09.519Z,-7.71
2019-01-23T20:28:51.294Z,-7.70
2019-01-23T20:30:53.175Z,-7.77
2019-01-23T20:32:38.199Z,-7.71
2019-01-23T20:34:17.640Z,-7.70
2019-01-23T20:35:54.995Z,-7.89
2019-01-23T20:37:43.600Z,-8.06
2019-01-23T20:39:34.337Z,-8.07
2019-01-23T20:41:18.247Z,-8.15
2019-01-23T20:42:55.418Z,-8.29
2019-01-23T20:44:42.466Z,-8.23
2019-01-23T20:46:18.885Z,-8.19
2019-01-23T20:47:56.749Z,-8.16
2019-01-23T20:49:34.268Z,-8.09
2019-01-23T20:51:11.853Z,-8.04
2019-01-23T20:52:52.700Z,-8.01
2019-01-23T20:54:30.197Z,-8.01
2019-01-23T20:56:06.504Z,-7.95
2019-01-23T20:57:57.887Z,-7.96
2019-01-23T20:59:40.509Z,-8.00
2019-01-23T21:01:26.403Z,-7.95
2019-01-23T21:03:08.751Z,-7.89
2019-01-23T21:05:03.010Z,-7.93
2019-01-23T21:06:44.512Z,-8.06
2019-01-23T21:08:31.029Z,-8.29
2019-01-23T21:10:15.131Z,-8.33
2019-01-23T21:11:51.818Z,-8.47
2019-01-23T21:13:38.799Z,-8.60
2019-01-23T21:15:29.793Z,-8.68
2019-01-23T21:17:07.264Z,-8.72
2019-01-23T21:18:47.765Z,-8.64
2019-01-23T21:20:24.987Z,-8.56
2019-01-23T21:22:15.525Z,-8.61
2019-01-23T21:23:56.610Z,-8.62
2019-01-23T21:25:39.223Z,-8.62
2019-01-23T21:27:29.726Z,-8.51
2019-01-23T21:29:08.489Z,-8.54
2019-01-23T21:30:54.178Z,-8.50
2019-01-23T21:32:41.300Z,-8.65
2019-01-23T21:34:18.251Z,-8.78
2019-01-23T21:36:15.519Z,-8.89
2019-01-23T21:37:57.846Z,-8.98
2019-01-23T21:39:45.509Z,-8.98
2019-01-23T21:41:17.220Z,-9.05
2019-01-23T21:43:03.448Z,-9.06
2019-01-23T21:44:48.062Z,-8.95
2019-01-23T21:46:32.413Z,-8.72
2019-01-23T21:48:14.478Z,-8.50
2019-01-23T21:49:56.351Z,-8.63
2019-01-23T21:52:00.804Z,-8.63